地図

経路データ

SID SEASON NUMBER BASIN SUBBASIN NAME ISO_TIME NATURE LAT LON WMO_WIND WMO_PRES WMO_AGENCY TRACK_TYPE DIST2LAND LANDFALL IFLAG USA_AGENCY USA_ATCF_ID USA_LAT USA_LON USA_RECORD USA_STATUS USA_WIND USA_PRES USA_SSHS USA_R34_NE USA_R34_SE USA_R34_SW USA_R34_NW USA_R50_NE USA_R50_SE USA_R50_SW USA_R50_NW USA_R64_NE USA_R64_SE USA_R64_SW USA_R64_NW USA_POCI USA_ROCI USA_RMW USA_EYE TOKYO_LAT TOKYO_LON TOKYO_GRADE TOKYO_WIND TOKYO_PRES TOKYO_R50_DIR TOKYO_R50_LONG TOKYO_R50_SHORT TOKYO_R30_DIR TOKYO_R30_LONG TOKYO_R30_SHORT TOKYO_LAND CMA_LAT CMA_LON CMA_CAT CMA_WIND CMA_PRES HKO_LAT HKO_LON HKO_CAT HKO_WIND HKO_PRES NEWDELHI_LAT NEWDELHI_LON NEWDELHI_GRADE NEWDELHI_WIND NEWDELHI_PRES NEWDELHI_CI NEWDELHI_DP NEWDELHI_POCI REUNION_LAT REUNION_LON REUNION_TYPE REUNION_WIND REUNION_PRES REUNION_TNUM REUNION_CI REUNION_RMW REUNION_R34_NE REUNION_R34_SE REUNION_R34_SW REUNION_R34_NW REUNION_R50_NE REUNION_R50_SE REUNION_R50_SW REUNION_R50_NW REUNION_R64_NE REUNION_R64_SE REUNION_R64_SW REUNION_R64_NW BOM_LAT BOM_LON BOM_TYPE BOM_WIND BOM_PRES BOM_TNUM BOM_CI BOM_RMW BOM_R34_NE BOM_R34_SE BOM_R34_SW BOM_R34_NW BOM_R50_NE BOM_R50_SE BOM_R50_SW BOM_R50_NW BOM_R64_NE BOM_R64_SE BOM_R64_SW BOM_R64_NW BOM_ROCI BOM_POCI BOM_EYE BOM_POS_METHOD BOM_PRES_METHOD NADI_LAT NADI_LON NADI_CAT NADI_WIND NADI_PRES WELLINGTON_LAT WELLINGTON_LON WELLINGTON_WIND WELLINGTON_PRES DS824_LAT DS824_LON DS824_STAGE DS824_WIND DS824_PRES TD9636_LAT TD9636_LON TD9636_STAGE TD9636_WIND TD9636_PRES TD9635_LAT TD9635_LON TD9635_WIND TD9635_PRES TD9635_ROCI NEUMANN_LAT NEUMANN_LON NEUMANN_CLASS NEUMANN_WIND NEUMANN_PRES MLC_LAT MLC_LON MLC_CLASS MLC_WIND MLC_PRES USA_GUST BOM_GUST BOM_GUST_PER REUNION_GUST REUNION_GUST_PER USA_SEAHGT USA_SEARAD_NE USA_SEARAD_SE USA_SEARAD_SW USA_SEARAD_NW STORM_SPEED STORM_DIR
1871052S11095 1871 6 SI WA NOT_NAMED 1871-02-21 06:00:00 NR -10.5000 94.7000 main 1089 1089 _____O________ -1 -10.5000 94.7000 99 9.90000 4 244
1871052S11095 1871 6 SI WA NOT_NAMED 1871-02-21 09:00:00 NR -10.5835 94.5231 main 1109 1109 _____P________ -1 -10.5835 94.5231 99 4 244
1871052S11095 1871 6 SI WA NOT_NAMED 1871-02-21 12:00:00 NR -10.6673 94.3440 main 1129 1129 _____P________ -1 -10.6673 94.3440 99 4 245
1871052S11095 1871 6 SI WA NOT_NAMED 1871-02-21 15:00:00 NR -10.7518 94.1604 main 1144 1144 _____P________ -1 -10.7518 94.1604 99 2 235
1871052S11095 1871 6 SI WA NOT_NAMED 1871-02-21 18:00:00 NR -10.8100 94.1362 main 1149 1149 _____P____O___ -1 -10.8375 93.9702 99 -10.7000 94.8000 7 2 232
1871052S11095 1871 6 SI WA NOT_NAMED 1871-02-21 21:00:00 NR -10.8938 93.9737 main 1164 1164 _____P____P___ -1 -10.9248 93.7713 99 -10.8318 94.3784 7 4 245
1871052S11095 1871 6 SI WA NOT_NAMED 1871-02-22 00:00:00 NR -10.9911 93.7345 main 1189 1189 _____P____P___ -1 -11.0140 93.5614 99 -10.9606 93.9653 7 5 248
1871052S11095 1871 6 SI WA NOT_NAMED 1871-02-22 03:00:00 NR -11.0948 93.4540 main 1210 1210 _____P____P___ -1 -11.1056 93.3384 99 -11.0841 93.5696 7 6 250
1871052S11095 1871 6 SI WA NOT_NAMED 1871-02-22 06:00:00 NR -11.2000 93.1500 main 1236 1236 _____O____O___ -1 -11.2000 93.1000 99 9.90000 -11.2000 93.2000 7 6 251
1871052S11095 1871 6 SI WA NOT_NAMED 1871-02-22 09:00:00 NR -11.3022 92.8540 main 1263 1263 _____P____P___ -1 -11.2975 92.8449 99 -11.3070 92.8630 7 6 250
1871052S11095 1871 6 SI WA NOT_NAMED 1871-02-22 12:00:00 NR -11.4029 92.5650 main 1290 1290 _____P____P___ -1 -11.3985 92.5751 99 -11.4073 92.5549 7 6 250
1871052S11095 1871 6 SI WA NOT_NAMED 1871-02-22 15:00:00 NR -11.5037 92.2813 main 1317 1317 _____P____P___ -1 -11.5034 92.2932 99 -11.5039 92.2693 7 6 250
1871052S11095 1871 6 SI WA NOT_NAMED 1871-02-22 18:00:00 NR -11.6063 92.0011 main 1345 1345 _____P____O___ -1 -11.6126 92.0021 99 -11.6000 92.0000 7 6 250
1871052S11095 1871 6 SI WA NOT_NAMED 1871-02-22 21:00:00 NR -11.7071 91.7220 main 1373 1373 _____P____P___ -1 -11.7264 91.7045 99 -11.6877 91.7395 7 6 249
1871052S11095 1871 6 SI WA NOT_NAMED 1871-02-23 00:00:00 NR -11.8113 91.4477 main 1402 1402 _____P____P___ -1 -11.8453 91.4031 99 -11.7773 91.4922 7 6 248
1871052S11095 1871 6 SI WA NOT_NAMED 1871-02-23 03:00:00 NR -11.9240 91.1748 main 1424 1424 _____P____P___ -1 -11.9697 91.1007 99 -11.8783 91.2489 7 6 246
1871052S11095 1871 6 SI WA NOT_NAMED 1871-02-23 06:00:00 NR -12.0500 90.9000 main 1452 1452 _____O____O___ -1 -12.1000 90.8000 99 9.90000 -12.0000 91.0000 7 6 243
1871052S11095 1871 6 SI WA NOT_NAMED 1871-02-23 09:00:00 NR -12.1977 90.6187 main 1490 1490 _____P____P___ -1 -12.2379 90.5011 99 -12.1574 90.7363 7 6 241
1871052S11095 1871 6 SI WA NOT_NAMED 1871-02-23 12:00:00 NR -12.3587 90.3329 main 1528 1528 _____P____P___ -1 -12.3825 90.2008 99 -12.3349 90.4650 7 7 240
1871052S11095 1871 6 SI WA NOT_NAMED 1871-02-23 15:00:00 NR -12.5260 90.0438 main 1557 1557 _____P____P___ -1 -12.5320 89.9014 99 -12.5199 90.1863 7 7 239
1871052S11095 1871 6 SI MM NOT_NAMED 1871-02-23 18:00:00 NR -12.6925 89.7526 main 1589 1589 _____P____O___ -1 -12.6850 89.6052 99 -12.7000 89.9000 7 7 240
1871052S11095 1871 6 SI MM NOT_NAMED 1871-02-23 21:00:00 NR -12.8527 89.4606 main 1627 1627 _____P____P___ -1 -12.8399 89.3147 99 -12.8655 89.6067 7 7 242
1871052S11095 1871 6 SI MM NOT_NAMED 1871-02-24 00:00:00 NR -13.0048 89.1502 main 1656 1656 _____P____P___ -1 -12.9950 89.0320 99 -13.0178 89.3077 7 7 244
1871052S11095 1871 6 SI MM NOT_NAMED 1871-02-24 03:00:00 NR -13.1530 88.8414 main 1702 1702 _____P____P___ -1 -13.1489 88.7597 99 -13.1612 89.0049 7 7 244
1871052S11095 1871 6 SI MM NOT_NAMED 1871-02-24 06:00:00 NR -13.3000 88.5400 main 1732 1732 _____O____O___ -1 -13.3000 88.5000 99 9.90000 -13.3000 88.7000 7 6 243
1871052S11095 1871 6 SI MM NOT_NAMED 1871-02-24 09:00:00 NR -13.4471 88.2547 main 1755 1755 _____P________ -1 -13.4471 88.2547 99 7 6 240
1871052S11095 1871 6 SI MM NOT_NAMED 1871-02-24 12:00:00 NR -13.5903 88.0226 main 1793 1793 _____P________ -1 -13.5903 88.0226 99 7 5 237
1871052S11095 1871 6 SI MM NOT_NAMED 1871-02-24 15:00:00 NR -13.7303 87.8018 main 1816 1816 _____P________ -1 -13.7303 87.8018 99 7 5 237
1871052S11095 1871 6 SI MM NOT_NAMED 1871-02-24 18:00:00 NR -13.8676 87.5903 main 1847 1847 _____P________ -1 -13.8676 87.5903 99 5 236
1871052S11095 1871 6 SI MM NOT_NAMED 1871-02-24 21:00:00 NR -14.0027 87.3864 main 1870 1870 _____P________ -1 -14.0027 87.3864 99 5 235
1871052S11095 1871 6 SI MM NOT_NAMED 1871-02-25 00:00:00 NR -14.1361 87.1879 main 1893 1893 _____P________ -1 -14.1361 87.1879 99 5 235
1871052S11095 1871 6 SI MM NOT_NAMED 1871-02-25 03:00:00 NR -14.2684 86.9931 main 1924 1924 _____P________ -1 -14.2684 86.9931 99 5 235
1871052S11095 1871 6 SI MM NOT_NAMED 1871-02-25 06:00:00 NR -14.4000 86.8000 main 1947 _____O________ -1 -14.4000 86.8000 99 9.90000 5 235

IBTrACS Databaseについて

本データベースは、米国NOAAが公開する1842年以降の世界の熱帯低気圧のベストトラックデータアーカイブInternational Best Track Archive for Climate Stewardship (IBTrACS)を、ウェブで閲覧しやすい形式に変換したものです。

最終更新日:2021-12-06